Time;durP1;ratioP1;P1;durP2;ratioP2;P2;SDS_P1;SDS_P2;PMS_P1;PMS_P2;Temp;Humidity;BMP_temperature;BMP_pressure;BME280_temperature;BME280_humidity;BME280_pressure;Samples;Min_cycle;Max_cycle;Signal;HPM_P1;HPM_P2
2023/02/05 00:00:33;;;;;;;7.28;3.85;;;13.30;70.00;;;;;;4937458;29;20058;-77
2023/02/05 00:02:59;;;;;;;8.85;4.40;;;13.30;70.00;;;;;;4940872;29;20070;-78
2023/02/05 00:05:25;;;;;;;5.07;3.63;;;13.30;70.00;;;;;;4946732;28;20719;-78
2023/02/05 00:07:50;;;;;;;6.90;3.50;;;13.30;69.90;;;;;;4946518;28;20055;-76
2023/02/05 00:10:17;;;;;;;5.35;3.80;;;13.30;69.90;;;;;;4947297;28;20106;-76
2023/02/05 00:12:43;;;;;;;7.05;3.60;;;13.40;70.00;;;;;;4944559;29;20418;-76
2023/02/05 00:15:09;;;;;;;6.43;3.88;;;13.30;69.80;;;;;;4956953;28;20034;-78
2023/02/05 00:17:36;;;;;;;8.95;4.53;;;13.40;69.90;;;;;;4946996;28;20047;-76
2023/02/05 00:20:03;;;;;;;7.57;4.32;;;13.40;69.90;;;;;;4940492;28;20119;-76
2023/02/05 00:22:29;;;;;;;8.52;5.05;;;13.40;69.90;;;;;;4925656;29;20098;-78
2023/02/05 00:24:55;;;;;;;7.30;3.80;;;13.30;69.70;;;;;;4945963;28;20039;-77
2023/02/05 00:27:21;;;;;;;9.77;5.30;;;13.40;69.80;;;;;;4945105;28;20042;-76
2023/02/05 00:29:47;;;;;;;9.23;4.40;;;13.40;69.80;;;;;;4928051;29;20063;-76
2023/02/05 00:32:13;;;;;;;7.97;3.60;;;13.40;69.70;;;;;;4945029;29;20149;-78
2023/02/05 00:34:39;;;;;;;8.63;4.43;;;13.40;69.70;;;;;;4939887;28;20472;-76
2023/02/05 00:37:05;;;;;;;7.55;4.18;;;13.40;69.70;;;;;;4936575;28;20400;-77
2023/02/05 00:39:30;;;;;;;8.85;5.03;;;13.40;69.60;;;;;;4944548;29;20059;-77
2023/02/05 00:41:56;;;;;;;8.38;3.55;;;13.40;69.60;;;;;;4944227;29;20043;-77
2023/02/05 00:44:23;;;;;;;7.05;3.15;;;13.40;69.60;;;;;;4944963;29;20638;-78
2023/02/05 00:46:49;;;;;;;7.38;3.70;;;13.50;69.70;;;;;;4933662;28;20130;-78
2023/02/05 00:49:15;;;;;;;4.78;3.47;;;13.50;69.70;;;;;;4944049;28;20117;-79
2023/02/05 00:51:41;;;;;;;7.38;3.72;;;13.50;69.70;;;;;;4949494;28;20050;-78
2023/02/05 00:54:07;;;;;;;7.40;3.42;;;13.40;69.50;;;;;;4959850;28;20030;-79
2023/02/05 00:56:34;;;;;;;6.72;3.42;;;13.50;69.60;;;;;;4955213;28;20042;-78
2023/02/05 00:59:01;;;;;;;8.65;5.18;;;13.50;69.70;;;;;;4935777;28;20661;-79
2023/02/05 01:01:27;;;;;;;4.53;3.03;;;13.50;69.70;;;;;;4939878;29;20722;-79
2023/02/05 01:03:53;;;;;;;5.88;3.08;;;13.40;69.50;;;;;;4945877;29;20038;-78
2023/02/05 01:06:19;;;;;;;6.95;3.50;;;13.50;69.60;;;;;;4934914;28;20032;-77
2023/02/05 01:08:46;;;;;;;7.47;4.13;;;13.50;69.60;;;;;;4946194;28;20061;-77
2023/02/05 01:11:14;;;;;;;5.95;3.10;;;13.40;69.40;;;;;;4944554;28;20043;-77
2023/02/05 01:13:40;;;;;;;4.00;2.92;;;13.40;69.40;;;;;;4944543;29;20619;-76
2023/02/05 01:16:06;;;;;;;5.90;3.13;;;13.40;69.40;;;;;;4945347;29;20119;-77
2023/02/05 01:18:35;;;;;;;3.88;2.58;;;13.40;69.30;;;;;;4944856;29;20050;-77
2023/02/05 01:21:01;;;;;;;5.30;3.03;;;13.40;69.30;;;;;;4935179;29;20031;-77
2023/02/05 01:23:27;;;;;;;5.57;3.22;;;13.40;69.30;;;;;;4946565;28;20039;-78
2023/02/05 01:25:53;;;;;;;6.07;3.33;;;13.40;69.20;;;;;;4943737;29;20118;-78
2023/02/05 01:28:19;;;;;;;5.13;3.22;;;13.40;69.80;;;;;;4924415;29;20047;-78
2023/02/05 01:30:49;;;;;;;5.20;2.72;;;13.40;69.20;;;;;;4933314;29;20659;-77
2023/02/05 01:33:16;;;;;;;9.40;2.80;;;13.30;69.00;;;;;;4944766;29;20043;-77
2023/02/05 01:35:43;;;;;;;6.30;2.83;;;13.30;69.10;;;;;;4944339;28;20071;-77
2023/02/05 01:38:13;;;;;;;4.88;2.30;;;13.30;69.00;;;;;;4936626;29;20031;-78
2023/02/05 01:40:39;;;;;;;5.30;2.53;;;13.30;69.00;;;;;;4943552;29;20038;-77
2023/02/05 01:43:12;;;;;;;3.92;2.47;;;13.20;68.90;;;;;;4943637;29;20042;-78
2023/02/05 01:45:50;;;;;;;5.45;2.85;;;13.20;68.90;;;;;;4938501;28;20035;-77
2023/02/05 01:48:20;;;;;;;5.85;2.30;;;13.20;68.90;;;;;;4942410;28;20494;-79
2023/02/05 01:50:52;;;;;;;7.63;3.03;;;13.10;68.70;;;;;;4952516;28;20031;-78
2023/02/05 01:53:23;;;;;;;5.72;2.65;;;13.10;68.70;;;;;;4943533;28;20054;-79
2023/02/05 01:55:56;;;;;;;6.78;3.28;;;13.10;68.70;;;;;;4944179;28;20042;-79
2023/02/05 01:58:25;;;;;;;5.20;2.40;;;13.10;68.70;;;;;;4941058;28;20031;-78
2023/02/05 02:00:51;;;;;;;8.05;2.40;;;13.00;68.50;;;;;;4938705;29;20064;-77
2023/02/05 02:03:17;;;;;;;6.07;2.63;;;13.00;68.60;;;;;;4949577;28;20062;-77
2023/02/05 02:05:43;;;;;;;4.30;2.25;;;13.00;68.50;;;;;;4943246;28;20020;-76
2023/02/05 02:08:11;;;;;;;7.47;2.28;;;12.90;68.30;;;;;;4955766;28;20069;-77
2023/02/05 02:10:38;;;;;;;4.30;2.40;;;12.90;68.30;;;;;;4940822;28;20043;-77
2023/02/05 02:13:04;;;;;;;5.15;2.05;;;12.90;68.40;;;;;;4942858;28;20066;-80
2023/02/05 02:15:31;;;;;;;5.82;2.17;;;12.80;68.20;;;;;;4943651;28;20074;-81
2023/02/05 02:18:24;;;;;;;6.72;2.22;;;12.80;68.20;;;;;;4950930;28;20783;-79
2023/02/05 02:21:07;;;;;;;5.85;2.75;;;12.80;68.20;;;;;;4945065;28;20031;-78
2023/02/05 02:24:05;;;;;;;8.40;2.20;;;12.70;68.10;;;;;;4940922;29;20046;-79
2023/02/05 02:27:02;;;;;;;8.15;2.85;;;12.70;68.10;;;;;;4924610;29;20502;-79
2023/02/05 02:29:51;;;;;;;7.18;2.47;;;12.60;68.00;;;;;;4942274;28;20051;-82
2023/02/05 02:32:33;;;;;;;6.63;2.42;;;12.60;68.00;;;;;;4946160;28;20483;-78
2023/02/05 02:35:35;;;;;;;6.03;2.03;;;12.50;67.90;;;;;;4941291;29;20039;-79
2023/02/05 02:38:15;;;;;;;6.63;1.88;;;12.40;67.80;;;;;;4932809;28;20285;-78
2023/02/05 02:40:47;;;;;;;4.95;2.13;;;12.40;67.80;;;;;;4938340;29;20622;-79
2023/02/05 02:43:25;;;;;;;6.40;1.73;;;12.30;67.70;;;;;;4932281;29;20111;-78
2023/02/05 02:45:58;;;;;;;3.28;1.30;;;12.30;67.70;;;;;;4927045;29;20078;-78
2023/02/05 02:48:27;;;;;;;3.25;1.40;;;12.20;67.60;;;;;;4942584;29;20072;-79
2023/02/05 02:50:55;;;;;;;6.60;2.05;;;12.20;67.60;;;;;;4946941;29;20058;-80
2023/02/05 02:53:27;;;;;;;3.95;1.80;;;12.20;67.70;;;;;;4950610;28;20047;-80
2023/02/05 02:55:55;;;;;;;5.90;2.30;;;12.10;67.50;;;;;;4947209;29;20042;-82
2023/02/05 02:58:35;;;;;;;3.45;1.70;;;12.10;67.60;;;;;;4928787;29;20114;-81
2023/02/05 03:01:05;;;;;;;5.43;1.70;;;12.10;67.60;;;;;;4942873;29;20066;-81
2023/02/05 03:03:34;;;;;;;5.30;2.10;;;12.00;67.50;;;;;;4947983;29;20443;-80
2023/02/05 03:06:04;;;;;;;7.82;2.45;;;12.00;67.50;;;;;;4946382;29;20559;-79
2023/02/05 03:08:39;;;;;;;5.32;1.80;;;11.90;67.30;;;;;;4947519;29;20043;-80
2023/02/05 03:11:12;;;;;;;6.68;1.85;;;11.90;67.40;;;;;;4946524;29;20039;-79
2023/02/05 03:13:38;;;;;;;7.65;1.88;;;11.90;67.30;;;;;;4947831;29;20053;-79
2023/02/05 03:16:06;;;;;;;9.43;2.67;;;11.80;67.20;;;;;;4947058;29;20027;-79
2023/02/05 03:18:32;;;;;;;7.55;2.35;;;11.80;67.20;;;;;;4947531;29;20062;-80
2023/02/05 03:21:08;;;;;;;7.38;1.98;;;11.80;67.20;;;;;;4947634;29;20585;-82
2023/02/05 03:23:34;;;;;;;7.45;2.33;;;11.80;67.10;;;;;;4948879;28;20031;-79
2023/02/05 03:26:00;;;;;;;4.13;1.70;;;11.70;66.90;;;;;;4949703;29;20035;-80
2023/02/05 03:28:43;;;;;;;7.25;2.58;;;11.70;66.90;;;;;;4947798;28;20161;-80
2023/02/05 03:31:19;;;;;;;7.22;3.00;;;11.70;66.90;;;;;;4953708;28;20042;-80
2023/02/05 03:34:03;;;;;;;9.65;2.05;;;11.60;66.70;;;;;;4951436;28;20047;-79
2023/02/05 03:36:48;;;;;;;6.95;1.85;;;11.60;66.70;;;;;;4947401;28;20046;-77
2023/02/05 03:39:15;;;;;;;7.38;2.10;;;11.60;66.60;;;;;;4948815;29;20035;-78
2023/02/05 03:42:01;;;;;;;5.53;1.85;;;11.50;66.40;;;;;;4933500;29;20043;-77
2023/02/05 03:44:58;;;;;;;7.18;1.65;;;11.50;66.40;;;;;;4950475;29;20023;-77
2023/02/05 03:47:31;;;;;;;8.20;1.60;;;11.50;66.40;;;;;;4939257;29;20043;-77
2023/02/05 03:50:23;;;;;;;6.30;1.45;;;11.50;66.40;;;;;;4949436;29;20042;-77
2023/02/05 03:52:59;;;;;;;5.60;1.90;;;11.50;66.30;;;;;;4950066;29;20044;-78
2023/02/05 03:55:35;;;;;;;6.80;2.53;;;11.50;66.40;;;;;;4949355;29;20035;-77
2023/02/05 03:58:22;;;;;;;7.30;2.13;;;11.50;66.40;;;;;;4947489;29;20039;-78
2023/02/05 04:00:49;;;;;;;7.18;1.52;;;11.40;66.20;;;;;;4942778;29;20036;-79
2023/02/05 04:03:16;;;;;;;8.65;1.98;;;11.40;66.20;;;;;;4934606;29;20090;-77
2023/02/05 04:05:42;;;;;;;8.68;3.50;;;11.40;66.20;;;;;;4949554;29;20093;-77
2023/02/05 04:08:08;;;;;;;7.22;2.10;;;11.40;66.10;;;;;;4929960;29;20036;-76
2023/02/05 04:10:42;;;;;;;6.90;1.65;;;11.40;66.10;;;;;;4942365;29;20038;-76
2023/02/05 04:13:08;;;;;;;8.23;2.45;;;11.40;66.10;;;;;;4954257;28;20039;-76
2023/02/05 04:15:36;;;;;;;5.82;1.60;;;11.30;65.90;;;;;;4955274;28;20086;-77
2023/02/05 04:18:07;;;;;;;8.30;2.00;;;11.30;65.80;;;;;;4957429;28;20695;-77
2023/02/05 04:20:33;;;;;;;7.80;1.40;;;11.30;65.80;;;;;;4954239;28;20509;-78
2023/02/05 04:23:00;;;;;;;5.85;2.10;;;11.30;65.80;;;;;;4949527;29;20039;-77
2023/02/05 04:25:28;;;;;;;4.20;2.10;;;11.30;65.80;;;;;;4947996;29;20538;-78
2023/02/05 04:27:59;;;;;;;8.63;2.28;;;11.20;65.60;;;;;;4943935;28;20638;-79
2023/02/05 04:30:25;;;;;;;8.70;2.92;;;11.20;65.60;;;;;;4942631;29;20043;-79
2023/02/05 04:32:51;;;;;;;7.78;1.45;;;11.20;65.60;;;;;;4945017;29;20031;-76
2023/02/05 04:35:18;;;;;;;7.13;2.22;;;11.20;65.60;;;;;;4941256;29;20063;-77
2023/02/05 04:37:46;;;;;;;9.85;1.92;;;11.10;65.40;;;;;;4942522;28;20039;-85
2023/02/05 04:40:12;;;;;;;4.60;1.50;;;11.10;65.30;;;;;;4942110;29;20046;-77
2023/02/05 04:42:38;;;;;;;4.57;1.40;;;11.10;65.30;;;;;;4943150;29;20047;-77
2023/02/05 04:45:05;;;;;;;6.22;1.80;;;11.10;65.30;;;;;;4933716;29;20031;-77
2023/02/05 04:47:31;;;;;;;4.85;1.73;;;11.00;65.20;;;;;;4946064;28;20039;-77
2023/02/05 04:49:57;;;;;;;9.10;1.90;;;11.00;65.20;;;;;;4946995;29;20050;-76
2023/02/05 04:52:23;;;;;;;7.85;2.10;;;11.00;65.20;;;;;;4943690;28;20032;-77
2023/02/05 04:54:49;;;;;;;5.63;2.00;;;11.00;65.30;;;;;;4946836;29;20391;-77
2023/02/05 04:57:16;;;;;;;5.82;1.65;;;11.00;65.30;;;;;;4946349;28;20024;-76
2023/02/05 04:59:42;;;;;;;4.20;1.85;;;11.00;65.30;;;;;;4934694;29;20542;-79
2023/02/05 05:02:08;;;;;;;6.13;2.47;;;10.90;65.10;;;;;;4950496;28;20027;-78
2023/02/05 05:04:35;;;;;;;4.78;2.28;;;10.90;65.10;;;;;;4949440;28;20035;-78
2023/02/05 05:07:01;;;;;;;6.07;1.70;;;10.90;65.10;;;;;;4950051;29;20744;-77
2023/02/05 05:09:27;;;;;;;4.40;1.52;;;10.90;65.10;;;;;;4940692;28;20031;-78
2023/02/05 05:11:55;;;;;;;6.68;1.70;;;10.80;65.00;;;;;;4947462;28;20171;-78
2023/02/05 05:14:21;;;;;;;5.63;2.40;;;10.80;65.00;;;;;;4945688;29;20665;-77
2023/02/05 05:16:50;;;;;;;7.43;2.28;;;10.80;65.00;;;;;;4940133;28;20044;-77
2023/02/05 05:19:16;;;;;;;4.53;1.70;;;10.70;64.80;;;;;;4945065;29;20027;-77
2023/02/05 05:21:42;;;;;;;9.10;2.45;;;10.80;65.00;;;;;;4946040;28;20053;-76
2023/02/05 05:24:08;;;;;;;4.25;1.40;;;10.70;64.80;;;;;;4947162;29;20664;-77
2023/02/05 05:26:34;;;;;;;5.93;1.50;;;10.70;64.80;;;;;;4947569;29;20043;-77
2023/02/05 05:29:00;;;;;;;4.90;2.42;;;10.60;64.70;;;;;;4943498;28;20055;-76
2023/02/05 05:31:26;;;;;;;5.95;1.83;;;10.60;64.70;;;;;;4949862;28;20027;-77
2023/02/05 05:33:52;;;;;;;6.32;2.17;;;10.60;64.70;;;;;;4946467;28;20792;-76
2023/02/05 05:36:18;;;;;;;4.63;1.63;;;10.60;64.70;;;;;;4944642;28;20092;-78
2023/02/05 05:38:44;;;;;;;8.25;2.25;;;10.70;64.90;;;;;;4942728;29;20027;-77
2023/02/05 05:44:02;;;;;;;6.80;1.88;;;10.60;64.70;;;;;;4948747;29;20035;-77
2023/02/05 05:46:28;;;;;;;4.35;1.60;;;10.50;64.50;;;;;;4929580;29;20039;-77
2023/02/05 05:48:56;;;;;;;6.90;1.83;;;10.50;64.50;;;;;;4939894;29;20043;-78
2023/02/05 05:51:24;;;;;;;6.43;2.47;;;10.50;64.50;;;;;;4926061;29;20131;-77
2023/02/05 05:53:51;;;;;;;8.50;2.38;;;10.50;64.50;;;;;;4945203;28;20039;-78
2023/02/05 05:56:17;;;;;;;9.98;1.80;;;10.50;64.50;;;;;;4928904;29;20130;-77
2023/02/05 05:58:44;;;;;;;5.68;1.58;;;10.50;64.50;;;;;;4943562;28;20050;-78
2023/02/05 06:01:11;;;;;;;6.82;1.63;;;10.50;64.40;;;;;;4944690;28;20126;-77
2023/02/05 06:03:37;;;;;;;4.97;1.60;;;10.50;64.40;;;;;;4945070;28;20098;-78
2023/02/05 06:06:05;;;;;;;7.40;2.58;;;10.40;64.20;;;;;;4941066;28;20094;-78
2023/02/05 06:08:32;;;;;;;4.35;1.50;;;10.40;64.20;;;;;;4944586;28;20078;-77
2023/02/05 06:10:58;;;;;;;6.47;2.00;;;10.40;64.20;;;;;;4943683;28;20458;-78
2023/02/05 06:13:25;;;;;;;6.68;1.77;;;10.40;64.20;;;;;;4942594;29;20035;-78
2023/02/05 06:15:53;;;;;;;9.30;2.63;;;10.40;64.20;;;;;;4945357;28;20487;-77
2023/02/05 06:18:19;;;;;;;8.90;3.65;;;10.40;64.20;;;;;;4939542;28;20471;-76
2023/02/05 06:20:45;;;;;;;7.68;1.73;;;10.40;64.20;;;;;;4943336;28;20027;-78
2023/02/05 06:23:12;;;;;;;7.85;1.80;;;10.40;64.20;;;;;;4951953;29;20571;-79
2023/02/05 06:25:38;;;;;;;5.35;2.15;;;10.40;64.00;;;;;;4942246;29;20968;-78
2023/02/05 06:28:04;;;;;;;7.18;2.08;;;10.40;63.90;;;;;;4941424;28;20039;-77
2023/02/05 06:30:30;;;;;;;7.45;2.78;;;10.30;63.70;;;;;;4939168;29;20069;-75
2023/02/05 06:32:56;;;;;;;7.15;1.92;;;10.20;63.50;;;;;;4944409;28;20139;-78
2023/02/05 06:35:22;;;;;;;8.73;2.75;;;10.00;63.30;;;;;;4942955;28;20122;-77
2023/02/05 06:37:48;;;;;;;11.70;2.13;;;9.90;63.20;;;;;;4942724;28;20130;-78
2023/02/05 06:40:16;;;;;;;7.82;3.08;;;9.80;63.10;;;;;;4943286;28;20122;-78
2023/02/05 06:42:43;;;;;;;8.50;2.35;;;9.70;63.10;;;;;;4942862;29;20102;-77
2023/02/05 06:45:10;;;;;;;12.02;2.42;;;9.60;63.00;;;;;;4935121;28;20036;-76
2023/02/05 06:47:36;;;;;;;8.05;2.08;;;9.50;62.80;;;;;;4942598;29;20520;-75
2023/02/05 06:50:04;;;;;;;8.25;2.67;;;9.40;62.80;;;;;;4942056;29;20036;-77
2023/02/05 06:52:30;;;;;;;8.15;2.70;;;9.30;62.60;;;;;;4941911;28;20126;-75
2023/02/05 06:54:55;;;;;;;13.98;3.03;;;9.20;62.50;;;;;;4943167;28;20142;-76
2023/02/05 06:57:21;;;;;;;8.98;2.28;;;9.20;62.50;;;;;;4943438;28;20797;-77
2023/02/05 06:59:47;;;;;;;8.05;1.67;;;9.10;62.40;;;;;;4941151;28;20035;-76
2023/02/05 07:02:13;;;;;;;9.55;2.72;;;9.00;62.20;;;;;;4943873;28;20042;-77
2023/02/05 07:04:39;;;;;;;10.63;2.63;;;9.00;62.30;;;;;;4947264;28;20510;-78
2023/02/05 07:07:05;;;;;;;6.25;1.90;;;8.90;62.10;;;;;;4947931;28;20043;-76
2023/02/05 07:09:31;;;;;;;8.57;2.63;;;8.90;62.10;;;;;;4946374;28;20031;-76
2023/02/05 07:11:57;;;;;;;12.93;2.42;;;8.80;61.90;;;;;;4945595;29;20038;-78
2023/02/05 07:14:23;;;;;;;11.27;2.05;;;8.80;62.00;;;;;;4948750;28;20035;-80
2023/02/05 07:16:49;;;;;;;9.60;2.20;;;8.70;61.80;;;;;;4945241;28;20098;-78
2023/02/05 07:19:16;;;;;;;7.28;2.75;;;8.60;61.60;;;;;;4947090;28;20454;-80
2023/02/05 07:21:42;;;;;;;9.65;2.72;;;8.60;61.60;;;;;;4930953;29;20127;-79
2023/02/05 07:24:08;;;;;;;15.63;2.60;;;8.50;61.50;;;;;;4947417;28;20098;-77
2023/02/05 07:26:34;;;;;;;7.95;2.72;;;8.50;61.50;;;;;;4943664;28;20051;-76
2023/02/05 07:29:01;;;;;;;13.68;2.83;;;8.50;61.50;;;;;;4944784;29;20455;-77
2023/02/05 07:31:27;;;;;;;8.65;2.72;;;8.50;61.50;;;;;;4948927;28;20058;-78
2023/02/05 07:33:53;;;;;;;7.43;1.98;;;8.40;61.40;;;;;;4947759;28;20031;-80
2023/02/05 07:36:19;;;;;;;7.45;2.45;;;8.40;61.40;;;;;;4952529;28;20038;-79
2023/02/05 07:38:46;;;;;;;12.25;3.33;;;8.30;61.20;;;;;;4953272;28;20023;-77
2023/02/05 07:41:14;;;;;;;7.07;2.13;;;8.30;61.70;;;;;;4954027;28;20038;-79
2023/02/05 07:43:40;;;;;;;8.25;2.80;;;8.30;61.20;;;;;;4952863;28;20027;-78
2023/02/05 07:46:10;;;;;;;8.60;2.00;;;8.30;61.20;;;;;;4936015;28;20183;-78
2023/02/05 07:48:36;;;;;;;9.95;2.30;;;8.30;61.10;;;;;;4944742;28;20081;-77
2023/02/05 07:51:02;;;;;;;7.63;2.42;;;8.20;60.90;;;;;;4960163;28;20498;-80
2023/02/05 07:53:28;;;;;;;12.50;2.30;;;8.20;61.00;;;;;;4941651;28;20294;-79
2023/02/05 07:55:54;;;;;;;8.77;2.17;;;8.10;60.80;;;;;;4946514;29;20511;-80
2023/02/05 07:58:21;;;;;;;7.75;2.10;;;8.10;60.70;;;;;;4946317;28;20081;-78
2023/02/05 08:00:47;;;;;;;8.48;2.15;;;8.10;61.20;;;;;;4948125;28;20039;-76
2023/02/05 08:03:13;;;;;;;15.98;2.97;;;8.10;60.80;;;;;;4941425;28;20526;-76
2023/02/05 08:05:39;;;;;;;7.43;2.17;;;8.00;60.50;;;;;;4946051;29;20579;-78
2023/02/05 08:08:05;;;;;;;14.73;3.90;;;8.00;60.50;;;;;;4945456;29;20039;-79
2023/02/05 08:10:32;;;;;;;13.05;2.53;;;8.00;60.50;;;;;;4941624;28;20031;-78
2023/02/05 08:12:58;;;;;;;13.48;2.60;;;8.00;60.50;;;;;;4947355;28;20045;-79
2023/02/05 08:15:25;;;;;;;14.63;3.45;;;8.00;60.50;;;;;;4947783;28;20035;-79
2023/02/05 08:17:51;;;;;;;14.10;2.90;;;8.00;60.40;;;;;;4947569;28;20039;-79
2023/02/05 08:20:17;;;;;;;14.35;3.47;;;8.00;60.40;;;;;;4939429;28;20134;-79
2023/02/05 08:22:44;;;;;;;9.80;3.40;;;8.10;60.70;;;;;;4952369;28;20085;-80
2023/02/05 08:25:13;;;;;;;11.20;2.53;;;8.10;60.80;;;;;;4954763;28;20035;-87
2023/02/05 08:27:41;;;;;;;12.18;2.17;;;8.20;61.00;;;;;;4949657;28;20491;-82
2023/02/05 08:30:13;;;;;;;9.98;2.63;;;8.30;61.10;;;;;;4944257;28;20054;-82
2023/02/05 08:32:39;;;;;;;11.45;3.30;;;8.40;61.30;;;;;;4965821;28;20049;-79
2023/02/05 08:35:05;;;;;;;10.00;2.08;;;8.50;61.40;;;;;;4951202;28;20114;-84
2023/02/05 08:37:31;;;;;;;16.52;3.38;;;8.60;61.50;;;;;;4943220;28;20042;-83
2023/02/05 08:39:57;;;;;;;10.90;3.05;;;8.70;61.70;;;;;;4956588;28;20038;-84
2023/02/05 08:42:23;;;;;;;7.72;2.10;;;8.80;61.80;;;;;;4941811;28;20069;-83
2023/02/05 08:44:50;;;;;;;10.02;2.50;;;8.80;61.80;;;;;;4950360;28;20173;-83
2023/02/05 08:47:20;;;;;;;7.72;2.50;;;8.90;61.90;;;;;;4940369;28;20389;-81
2023/02/05 08:49:46;;;;;;;14.98;2.85;;;8.90;61.90;;;;;;4959563;28;20321;-83
2023/02/05 08:52:13;;;;;;;8.80;2.00;;;9.00;62.00;;;;;;4944394;28;20039;-82
2023/02/05 08:54:40;;;;;;;9.88;2.67;;;9.10;62.20;;;;;;4944014;28;20487;-82
2023/02/05 08:57:06;;;;;;;6.72;2.47;;;9.10;62.20;;;;;;4944694;28;20038;-84
2023/02/05 08:59:32;;;;;;;15.88;3.45;;;9.20;62.30;;;;;;4941781;29;20054;-82
2023/02/05 09:01:59;;;;;;;14.57;3.40;;;9.20;62.30;;;;;;4944628;28;20031;-82
2023/02/05 09:04:25;;;;;;;12.20;2.65;;;9.30;62.40;;;;;;4942536;28;20470;-82
2023/02/05 09:06:51;;;;;;;9.27;2.85;;;9.30;62.30;;;;;;4945116;28;20528;-87
2023/02/05 09:09:17;;;;;;;14.52;2.90;;;9.40;62.30;;;;;;4944632;28;20033;-82
2023/02/05 09:11:45;;;;;;;15.23;6.20;;;9.40;62.20;;;;;;4947942;28;20053;-82
2023/02/05 09:14:12;;;;;;;51.15;28.00;;;9.40;62.10;;;;;;4946560;28;20035;-81
2023/02/05 09:16:38;;;;;;;121.63;68.78;;;9.50;62.20;;;;;;4936618;28;20141;-89
2023/02/05 09:19:04;;;;;;;83.85;45.78;;;9.50;62.50;;;;;;4949581;28;20039;-92
2023/02/05 09:21:30;;;;;;;59.88;34.00;;;9.70;63.30;;;;;;4952972;28;20206;-90
2023/02/05 09:23:57;;;;;;;48.85;26.08;;;9.90;63.80;;;;;;4949656;29;20508;-88
2023/02/05 09:26:23;;;;;;;43.45;25.77;;;10.10;64.10;;;;;;4956426;28;20102;-93
2023/02/05 09:28:49;;;;;;;40.60;23.02;;;10.30;64.20;;;;;;4945098;28;20047;-84
2023/02/05 09:31:18;;;;;;;40.05;22.65;;;10.50;64.30;;;;;;4947456;28;20555;-85
2023/02/05 09:33:44;;;;;;;44.63;22.88;;;10.70;64.40;;;;;;4946048;28;20042;-86
2023/02/05 09:36:19;;;;;;;36.40;20.05;;;10.90;64.50;;;;;;4938738;28;20027;-78
2023/02/05 09:38:46;;;;;;;38.08;20.27;;;11.00;64.40;;;;;;4936918;29;20045;-80
2023/02/05 09:41:12;;;;;;;29.73;15.80;;;11.10;64.10;;;;;;4942547;29;20070;-80
2023/02/05 09:43:51;;;;;;;26.60;14.40;;;11.20;64.00;;;;;;4941739;28;20067;-79
2023/02/05 09:46:41;;;;;;;25.83;13.77;;;11.10;63.30;;;;;;4940457;29;20036;-79
2023/02/05 09:49:17;;;;;;;23.13;11.63;;;11.10;63.10;;;;;;4951086;28;20431;-79
2023/02/05 09:51:50;;;;;;;19.52;9.90;;;11.00;62.90;;;;;;4949768;28;20031;-80
2023/02/05 09:54:27;;;;;;;20.38;10.35;;;10.90;62.70;;;;;;4952119;28;20458;-79
2023/02/05 09:56:58;;;;;;;18.50;8.82;;;10.80;62.60;;;;;;4938018;28;20034;-80
2023/02/05 09:59:26;;;;;;;16.50;8.18;;;10.70;62.50;;;;;;4945054;28;20455;-81
2023/02/05 10:01:56;;;;;;;21.08;7.78;;;10.60;62.30;;;;;;4944603;28;20118;-80
2023/02/05 10:04:22;;;;;;;15.73;7.53;;;10.50;62.10;;;;;;4927210;29;20047;-79
2023/02/05 10:07:03;;;;;;;16.50;6.75;;;10.40;62.00;;;;;;4944350;28;20471;-80
2023/02/05 10:09:38;;;;;;;14.20;6.03;;;10.30;61.80;;;;;;4953474;28;20078;-79
2023/02/05 10:12:39;;;;;;;12.80;5.72;;;10.20;61.70;;;;;;4936618;29;20122;-78
2023/02/05 10:15:35;;;;;;;10.23;4.80;;;10.10;61.40;;;;;;4930985;28;20511;-79
2023/02/05 10:18:26;;;;;;;9.77;4.53;;;10.00;61.40;;;;;;4956861;28;20128;-78
2023/02/05 10:21:12;;;;;;;10.77;4.93;;;9.90;61.20;;;;;;4941525;29;20411;-80
2023/02/05 10:24:20;;;;;;;15.57;4.50;;;9.90;61.70;;;;;;4937264;28;20176;-79
2023/02/05 10:26:51;;;;;;;14.15;4.60;;;9.90;61.20;;;;;;4936325;29;20274;-78
2023/02/05 10:29:31;;;;;;;12.88;5.45;;;9.80;61.10;;;;;;4937429;28;20130;-79
2023/02/05 10:32:21;;;;;;;12.38;4.10;;;9.80;61.00;;;;;;4940620;28;20394;-79
2023/02/05 10:35:26;;;;;;;11.65;3.83;;;9.80;61.00;;;;;;4935872;29;20035;-78
2023/02/05 10:37:56;;;;;;;8.80;3.85;;;9.70;60.70;;;;;;4934808;29;20040;-79
2023/02/05 10:40:30;;;;;;;11.23;3.80;;;9.80;60.80;;;;;;4942897;28;20041;-79
2023/02/05 10:43:04;;;;;;;8.32;3.05;;;9.80;60.70;;;;;;4957259;28;20031;-79
2023/02/05 10:45:30;;;;;;;10.57;3.30;;;9.80;60.60;;;;;;4936106;29;20028;-79
2023/02/05 10:48:06;;;;;;;10.80;4.10;;;9.80;60.50;;;;;;4938020;28;20053;-79
2023/02/05 10:50:32;;;;;;;9.68;2.70;;;9.80;60.30;;;;;;4944899;28;20034;-78
2023/02/05 10:52:58;;;;;;;11.02;2.90;;;9.80;60.20;;;;;;4938271;28;20400;-78
2023/02/05 10:55:24;;;;;;;9.70;2.75;;;9.90;60.30;;;;;;4942387;28;20463;-77
2023/02/05 10:57:50;;;;;;;8.15;3.67;;;9.90;60.10;;;;;;4957968;28;20125;-77
2023/02/05 11:00:21;;;;;;;8.90;2.90;;;10.00;60.10;;;;;;4942376;28;20495;-78
2023/02/05 11:02:53;;;;;;;13.40;3.25;;;10.00;59.90;;;;;;4948942;28;20039;-75
2023/02/05 11:05:36;;;;;;;9.70;3.63;;;10.00;59.70;;;;;;4946454;28;20516;-76
2023/02/05 11:08:02;;;;;;;9.43;2.70;;;10.20;59.70;;;;;;4942701;28;20062;-77
2023/02/05 11:10:32;;;;;;;11.55;3.33;;;10.30;59.80;;;;;;4942407;28;20269;-76
2023/02/05 11:13:19;;;;;;;11.13;2.85;;;10.30;59.40;;;;;;4953298;28;20039;-77
2023/02/05 11:15:54;;;;;;;7.40;2.38;;;10.40;59.20;;;;;;4944789;28;20028;-81
2023/02/05 11:18:27;;;;;;;10.68;2.83;;;10.60;59.30;;;;;;4963728;28;20038;-81
2023/02/05 11:21:03;;;;;;;7.78;2.83;;;10.70;59.20;;;;;;4954000;28;20127;-80
2023/02/05 11:23:38;;;;;;;8.80;2.35;;;10.80;59.10;;;;;;4943559;28;20488;-78
2023/02/05 11:26:27;;;;;;;9.38;2.17;;;10.90;59.00;;;;;;4944158;28;20082;-78
2023/02/05 11:28:53;;;;;;;8.35;3.30;;;11.00;58.60;;;;;;4931365;28;20078;-76
2023/02/05 11:31:26;;;;;;;8.75;2.50;;;11.10;58.70;;;;;;4954410;28;20109;-78
2023/02/05 11:34:16;;;;;;;9.60;3.00;;;11.20;58.50;;;;;;4953750;28;20042;-79
2023/02/05 11:37:00;;;;;;;9.40;2.85;;;11.20;58.20;;;;;;4924860;29;20550;-80
2023/02/05 11:39:38;;;;;;;9.40;2.67;;;11.30;58.20;;;;;;4945813;28;20044;-81
2023/02/05 11:42:23;;;;;;;7.40;2.45;;;11.30;58.10;;;;;;4947871;28;20118;-78
2023/02/05 11:44:57;;;;;;;11.90;3.88;;;11.30;58.20;;;;;;4944111;28;20142;-78
2023/02/05 11:47:33;;;;;;;8.20;2.00;;;11.30;58.20;;;;;;4938880;28;20054;-80
2023/02/05 11:50:00;;;;;;;10.20;3.33;;;11.40;58.40;;;;;;4945053;28;20031;-79
2023/02/05 11:52:31;;;;;;;10.52;3.10;;;11.40;58.40;;;;;;4944844;28;20113;-79
2023/02/05 11:54:57;;;;;;;11.65;2.60;;;11.50;58.50;;;;;;4942655;28;20038;-79
2023/02/05 11:57:32;;;;;;;7.35;3.05;;;11.50;58.50;;;;;;4943076;29;20530;-80
2023/02/05 12:00:19;;;;;;;9.20;2.60;;;11.50;58.40;;;;;;4944930;29;20459;-79
2023/02/05 12:02:50;;;;;;;11.15;3.53;;;11.60;58.80;;;;;;4945850;28;20054;-79
2023/02/05 12:05:22;;;;;;;9.68;3.30;;;11.60;58.80;;;;;;4946845;28;20074;-79
2023/02/05 12:08:24;;;;;;;10.95;3.13;;;11.70;59.00;;;;;;4946071;28;20153;-79
2023/02/05 12:11:06;;;;;;;8.90;3.47;;;11.80;59.20;;;;;;4943787;28;20062;-79
2023/02/05 12:13:56;;;;;;;9.50;3.45;;;11.80;59.20;;;;;;4947220;28;20031;-79
2023/02/05 12:16:45;;;;;;;7.60;3.53;;;11.90;59.40;;;;;;4945983;28;20047;-82
2023/02/05 12:19:43;;;;;;;14.10;4.80;;;12.00;59.60;;;;;;4954240;28;20544;-81
2023/02/05 12:22:34;;;;;;;18.13;9.20;;;12.00;59.80;;;;;;4946123;28;20099;-81
2023/02/05 12:25:25;;;;;;;22.08;13.43;;;12.10;60.10;;;;;;4936942;29;20035;-88
2023/02/05 12:27:54;;;;;;;19.38;9.35;;;12.20;60.70;;;;;;4934467;28;20047;-81
2023/02/05 12:30:20;;;;;;;15.32;8.50;;;12.30;60.80;;;;;;4944494;29;20239;-79
2023/02/05 12:33:10;;;;;;;16.52;7.65;;;12.30;60.70;;;;;;4949004;28;20049;-88
2023/02/05 12:35:36;;;;;;;15.70;6.63;;;12.40;60.70;;;;;;4945337;29;20159;-87
2023/02/05 12:38:37;;;;;;;14.38;7.05;;;12.40;60.60;;;;;;4946206;29;20625;-87
2023/02/05 12:41:03;;;;;;;8.52;6.55;;;12.40;60.40;;;;;;4930506;29;20045;-93
2023/02/05 12:43:43;;;;;;;13.63;5.28;;;12.30;60.20;;;;;;4947877;28;20039;-78
2023/02/05 12:46:15;;;;;;;13.63;5.95;;;12.30;59.90;;;;;;4934283;28;20024;-78
2023/02/05 12:49:04;;;;;;;12.98;6.63;;;12.30;60.00;;;;;;4955927;28;20039;-79
2023/02/05 12:51:45;;;;;;;13.32;5.78;;;12.40;61.20;;;;;;4943616;28;20031;-76
2023/02/05 12:54:29;;;;;;;13.52;7.25;;;12.70;62.30;;;;;;4957736;28;20423;-79
2023/02/05 12:57:10;;;;;;;11.57;5.40;;;13.00;63.00;;;;;;4946312;28;20081;-80
2023/02/05 12:59:42;;;;;;;11.75;4.97;;;13.30;63.00;;;;;;4944925;28;20440;-79
2023/02/05 13:02:31;;;;;;;9.47;4.43;;;13.60;63.20;;;;;;4946582;28;20034;-82
2023/02/05 13:05:15;;;;;;;8.85;5.00;;;13.90;63.30;;;;;;4958992;28;20260;-82
2023/02/05 13:08:03;;;;;;;11.68;4.70;;;14.10;63.20;;;;;;4959326;28;20034;-82